CW2474 Weather Reports


Display with metric or nautical units.
time (UTC)temp
F
wind
direction
speed
MPH
gust
MPH
rain 1hr
in
rain 24hr
in
rain mn
in
humidity
%
barometer
mb
20210919042037 74 126 0.0 0.0 0.00 0.00 0.00 20 1010.5
20210919040026 76 322 0.0 0.0 0.00 0.00 0.00 20 1011.4
20210919035027 76 322 0.0 0.0 0.00 0.00 0.00 19 1011.5
20210919034028 76 322 0.0 0.0 0.00 0.00 0.00 19 1011.6
20210919032032 77 254 0.0 0.0 0.00 0.00 0.00 19 1011.7
20210919031037 77 335 0.0 0.0 0.00 0.00 0.00 19 1013.4
20210919030040 77 316 0.0 0.0 0.00 0.00 0.00 19 1013.4
20210919024024 77 17 0.0 0.0 0.00 0.00 0.00 18 1013.2
20210919023032 78 322 0.0 0.0 0.00 0.00 0.00 18 1013.2
20210919022033 79 322 0.0 0.0 0.00 0.00 0.00 17 1012.9
20210919021035 79 321 0.0 0.0 0.00 0.00 0.00 16 1013.4
20210919020037 80 315 1.0 0.0 0.00 0.00 0.00 16 1013.4
20210919015038 80 294 2.0 0.0 0.00 0.00 0.00 16 1013.3
20210919012036 81 136 0.0 0.0 0.00 0.00 0.00 16 1013.2
20210919011040 81 136 0.0 0.0 0.00 0.00 0.00 14 1013.3
20210919010025 82 136 0.0 0.0 0.00 0.00 0.00 15 1013.3
20210919005026 83 136 0.0 0.0 0.00 0.00 0.00 14 1013.4
20210919004025 83 136 0.0 0.0 0.00 0.00 0.00 13 1012.8
20210919002034 84 136 0.0 0.0 0.00 0.00 0.00 16 1012.7
20210919001037 85 136 0.0 0.0 0.00 0.00 0.00 15 1011.8
20210919000040 86 136 0.0 0.0 0.00 0.00 0.00 13 1011.8
20210918233031 88 136 0.0 0.0 0.00 0.00 0.00 13 1012.0
20210918232036 89 136 0.0 0.0 0.00 0.00 0.00 12 1011.5
20210918231042 90 136 0.0 0.0 0.00 0.00 0.00 10 1011.2
20210918230024 90 136 2.0 0.0 0.00 0.00 0.00 10 1011.2
20210918225027 90 117 0.0 0.0 0.00 0.00 0.00 10 1011.6
20210918224029 90 345 0.0 0.0 0.00 0.00 0.00 11 1011.3
20210918222034 91 282 0.0 0.0 0.00 0.00 0.00 10 1011.3
20210918215028 89 140 0.0 0.0 0.00 0.00 0.00 12 1012.6
20210918214029 89 140 0.0 0.0 0.00 0.00 0.00 12 1012.3
20210918213030 90 141 0.0 0.0 0.00 0.00 0.00 11 1012.3
20210918212035 89 299 0.0 0.0 0.00 0.00 0.00 12 1012.6
20210918211037 88 38 0.0 0.0 0.00 0.00 0.00 13 1012.8
20210918210040 90 329 0.0 0.0 0.00 0.00 0.00 15 1012.8
20210918205042 90 332 1.0 0.0 0.00 0.00 0.00 14 1013.1
20210918204027 89 321 1.0 0.0 0.00 0.00 0.00 15 1013.3
20210918203029 89 322 1.0 0.0 0.00 0.00 0.00 15 1013.3
20210918202031 89 312 0.0 0.0 0.00 0.00 0.00 15 1014.0
20210918201034 88 330 0.0 0.0 0.00 0.00 0.00 14 1014.0
20210918200040 88 47 0.0 0.0 0.00 0.00 0.00 17 1014.0
20210918195041 88 54 0.0 0.0 0.00 0.00 0.00 15 1014.5
20210918194024 87 336 0.0 0.0 0.00 0.00 0.00 15 1015.2
20210918192035 85 144 0.0 0.0 0.00 0.00 0.00 14 1015.5
20210918191037 84 316 0.0 0.0 0.00 0.00 0.00 20 1015.4
20210918185025 82 322 0.0 0.0 0.00 0.00 0.00 22 1016.3
20210918184030 82 322 0.0 0.0 0.00 0.00 0.00 22 1016.8
20210918182032 80 306 1.0 0.0 0.00 0.00 0.00 25 1017.2
20210918181034 79 315 0.0 0.0 0.00 0.00 0.00 21 1017.6
20210918175026 77 318 0.0 0.0 0.00 0.00 0.00 24 1018.4
20210918174027 77 305 0.0 0.0 0.00 0.00 0.00 27 1018.9
20210918173031 75 247 0.0 0.0 0.00 0.00 0.00 31 1018.9
20210918172032 75 292 0.0 0.0 0.00 0.00 0.00 35 1019.5
20210918170041 71 291 0.0 0.0 0.00 0.00 0.00 43 1020.0
20210918165042 68 147 0.0 0.0 0.00 0.00 0.00 49 1021.0
20210918164025 67 147 0.0 0.0 0.00 0.00 0.00 47 1021.1
20210918162034 66 147 0.0 0.0 0.00 0.00 0.00 50 1021.6
20210918161035 65 147 0.0 0.0 0.00 0.00 0.00 51 1021.6
20210918160037 64 147 0.0 0.0 0.00 0.00 0.00 52 1021.6
20210918154028 62 147 0.0 0.0 0.00 0.00 0.00 54 1022.5
20210918153029 60 147 0.0 0.0 0.00 0.00 0.00 58 1022.5
20210918151033 55 147 0.0 0.0 0.00 0.00 0.00 69 1023.5
20210918150039 53 147 0.0 0.0 0.00 0.00 0.00 70 1023.5
20210918145040 52 147 0.0 0.0 0.00 0.00 0.00 70 1023.9
20210918144022 51 147 0.0 0.0 0.00 0.00 0.00 70 1024.0
20210918140026 49 147 0.0 0.0 0.00 0.00 0.00 68 1024.4
20210918135028 48 147 0.0 0.0 0.00 0.00 0.00 69 1024.5
20210918132038 48 147 0.0 0.0 0.00 0.00 0.00 67 1024.3
20210918131041 48 147 0.0 0.0 0.00 0.00 0.00 66 1023.4
20210918130043 48 147 0.0 0.0 0.00 0.00 0.00 65 1023.4
20210918125025 48 147 0.0 0.0 0.00 0.00 0.00 65 1023.3
20210918123038 48 147 0.0 0.0 0.00 0.00 0.00 65 1023.4
20210918122040 48 147 0.0 0.0 0.00 0.00 0.00 65 1023.3
20210918121041 49 147 0.0 0.0 0.00 0.00 0.00 64 1022.6
20210918114033 49 147 0.0 0.0 0.00 0.00 0.00 64 1022.7
20210918113034 50 147 0.0 0.0 0.00 0.00 0.00 64 1022.7
20210918112038 50 147 0.0 0.0 0.00 0.00 0.00 64 1022.9
20210918110025 50 147 0.0 0.0 0.00 0.00 0.00 65 1022.9
20210918104029 50 147 0.0 0.0 0.00 0.00 0.00 64 1023.1
20210918103035 50 147 0.0 0.0 0.00 0.00 0.00 63 1023.1
20210918102038 50 147 0.0 0.0 0.00 0.00 0.00 63 1023.1
20210918095028 50 147 0.0 0.0 0.00 0.00 0.00 64 1023.5
20210918094028 50 147 0.0 0.0 0.00 0.00 0.00 62 1023.2
20210918092033 51 147 0.0 0.0 0.00 0.00 0.00 64 1023.2
20210918090024 51 147 0.0 0.0 0.00 0.00 0.00 62 1023.7
20210918081024 53 147 0.0 0.0 0.00 0.00 0.00 60 1024.3
20210918080025 53 147 0.0 0.0 0.00 0.00 0.00 59 1024.3
20210918073037 54 147 0.0 0.0 0.00 0.00 0.00 59 1023.9
20210918072023 54 147 0.0 0.0 0.00 0.00 0.00 58 1024.0
20210918070028 54 147 0.0 0.0 0.00 0.00 0.00 58 1024.3
20210918065032 55 147 0.0 0.0 0.00 0.00 0.00 58 1024.1
20210918064039 55 147 0.0 0.0 0.00 0.00 0.00 57 1024.1
20210918063039 55 147 0.0 0.0 0.00 0.00 0.00 57 1024.1
20210918062021 55 147 0.0 0.0 0.00 0.00 0.00 57 1024.1
20210918055035 55 147 0.0 0.0 0.00 0.00 0.00 58 1024.2
20210918054036 56 147 0.0 0.0 0.00 0.00 0.00 57 1024.2
20210918053037 56 147 0.0 0.0 0.00 0.00 0.00 56 1024.2
20210918045033 56 147 0.0 0.0 0.00 0.00 0.00 55 1024.9
20210918044034 57 147 0.0 0.0 0.00 0.00 0.00 55 1024.9